createdAt,value
2019-03-31T00:02:07.493Z,91.70
2019-03-31T00:04:33.742Z,91.80
2019-03-31T00:06:59.977Z,91.00
2019-03-31T00:09:26.258Z,91.10
2019-03-31T00:11:52.490Z,91.10
2019-03-31T00:14:18.717Z,91.50
2019-03-31T00:16:44.974Z,91.60
2019-03-31T00:19:11.203Z,94.20
2019-03-31T00:21:37.465Z,92.20
2019-03-31T00:24:03.702Z,92.30
2019-03-31T00:26:29.947Z,92.40
2019-03-31T00:28:56.172Z,92.20
2019-03-31T00:31:22.835Z,92.30
2019-03-31T00:33:49.160Z,92.40
2019-03-31T00:36:15.422Z,93.00
2019-03-31T00:38:41.678Z,93.30
2019-03-31T00:41:07.904Z,93.40
2019-03-31T00:43:34.164Z,93.80
2019-03-31T00:46:00.510Z,94.00
2019-03-31T00:48:26.767Z,94.50
2019-03-31T00:50:52.998Z,94.70
2019-03-31T00:53:19.258Z,95.60
2019-03-31T00:55:45.486Z,95.90
2019-03-31T00:58:11.748Z,95.50
2019-03-31T01:00:46.189Z,95.30
2019-03-31T01:03:13.348Z,95.90
2019-03-31T01:05:40.871Z,96.30
2019-03-31T01:08:07.223Z,96.40
2019-03-31T01:10:33.444Z,96.80
2019-03-31T01:13:00.166Z,97.00
2019-03-31T01:15:28.222Z,97.30
2019-03-31T01:17:54.446Z,98.00
2019-03-31T01:20:21.005Z,98.10
2019-03-31T01:22:47.219Z,97.00
2019-03-31T01:25:13.577Z,97.60
2019-03-31T01:27:40.504Z,97.90
2019-03-31T01:30:08.958Z,98.90
2019-03-31T01:32:35.202Z,98.40
2019-03-31T01:35:01.786Z,99.50
2019-03-31T01:37:28.216Z,99.90
2019-03-31T01:39:54.445Z,99.20
2019-03-31T01:42:21.203Z,99.20
2019-03-31T01:44:47.837Z,99.20
2019-03-31T01:47:14.724Z,99.40
2019-03-31T01:49:40.955Z,99.10
2019-03-31T01:52:07.210Z,99.20
2019-03-31T01:54:33.506Z,99.70
2019-03-31T01:56:59.782Z,99.90
2019-03-31T01:59:26.018Z,99.70
2019-03-31T02:02:03.610Z,99.90
2019-03-31T02:04:20.326Z,99.90
2019-03-31T02:06:46.562Z,99.90
2019-03-31T02:09:12.830Z,99.90
2019-03-31T02:11:39.051Z,99.90
2019-03-31T02:14:05.307Z,99.90
2019-03-31T02:16:31.531Z,99.90
2019-03-31T02:18:57.820Z,99.90
2019-03-31T02:21:24.041Z,99.90
2019-03-31T02:23:50.277Z,99.90
2019-03-31T02:26:16.527Z,99.90
2019-03-31T02:28:42.765Z,99.90
2019-03-31T02:31:09.363Z,99.90
2019-03-31T02:33:35.599Z,99.90
2019-03-31T02:36:01.942Z,99.90
2019-03-31T02:38:28.460Z,99.90
2019-03-31T02:40:54.722Z,99.90
2019-03-31T02:43:20.947Z,99.90
2019-03-31T02:45:47.217Z,99.90
2019-03-31T02:48:13.494Z,99.90
2019-03-31T02:50:45.591Z,99.90
2019-03-31T02:53:12.596Z,99.90
2019-03-31T02:55:38.887Z,99.90
2019-03-31T02:58:05.954Z,99.90
2019-03-31T03:00:32.276Z,99.90
2019-03-31T03:02:59.523Z,99.90
2019-03-31T03:05:28.458Z,99.90
2019-03-31T03:07:56.022Z,99.90
2019-03-31T03:10:23.859Z,99.90
2019-03-31T03:12:50.887Z,99.90
2019-03-31T03:15:25.551Z,99.90
2019-03-31T03:17:51.766Z,99.90
2019-03-31T03:20:18.033Z,99.90
2019-03-31T03:22:44.277Z,99.90
2019-03-31T03:25:10.540Z,99.90
2019-03-31T03:27:36.762Z,99.90
2019-03-31T03:30:03.718Z,99.90
2019-03-31T03:32:29.992Z,99.90
2019-03-31T03:34:56.250Z,99.90
2019-03-31T03:37:22.502Z,99.90
2019-03-31T03:39:48.747Z,99.90
2019-03-31T03:42:14.996Z,99.90
2019-03-31T03:44:41.230Z,99.90
2019-03-31T03:47:07.534Z,99.90
2019-03-31T03:49:33.761Z,99.90
2019-03-31T03:52:00.027Z,99.90
2019-03-31T03:54:26.273Z,99.90
2019-03-31T03:56:52.516Z,99.90
2019-03-31T03:59:18.738Z,99.90
2019-03-31T04:01:44.987Z,99.90
2019-03-31T04:04:11.316Z,99.90
2019-03-31T04:06:37.566Z,99.90
2019-03-31T04:09:05.792Z,99.90
2019-03-31T04:11:32.392Z,99.90
2019-03-31T04:13:58.618Z,99.90
2019-03-31T04:16:25.373Z,99.90
2019-03-31T04:18:51.702Z,99.90
2019-03-31T04:21:18.118Z,99.90
2019-03-31T04:23:44.487Z,99.90
2019-03-31T04:26:10.696Z,99.90
2019-03-31T04:28:36.956Z,99.90
2019-03-31T04:31:03.179Z,99.90
2019-03-31T04:33:48.295Z,99.90
2019-03-31T04:35:57.966Z,99.90
2019-03-31T04:38:24.217Z,99.90
2019-03-31T04:40:50.446Z,99.90
2019-03-31T04:43:16.703Z,99.90
2019-03-31T04:45:43.694Z,99.90
2019-03-31T04:48:09.999Z,99.90
2019-03-31T04:50:36.222Z,99.90
2019-03-31T04:53:02.556Z,99.90
2019-03-31T04:55:28.794Z,99.90
2019-03-31T04:57:55.009Z,99.90
2019-03-31T05:00:21.266Z,99.90
2019-03-31T05:02:47.489Z,99.90
2019-03-31T05:05:13.762Z,99.90
2019-03-31T05:07:39.984Z,99.90
2019-03-31T05:10:06.814Z,99.90
2019-03-31T05:12:33.071Z,99.90
2019-03-31T05:14:59.893Z,99.90
2019-03-31T05:17:26.139Z,99.90
2019-03-31T05:19:52.367Z,99.90
2019-03-31T05:22:18.610Z,99.90
2019-03-31T05:24:44.850Z,99.90
2019-03-31T05:27:11.118Z,99.90
2019-03-31T05:29:37.338Z,99.90
2019-03-31T05:32:03.591Z,99.90
2019-03-31T05:34:29.810Z,99.90
2019-03-31T05:36:56.080Z,97.80
2019-03-31T05:39:22.297Z,95.40
2019-03-31T05:41:48.522Z,93.10
2019-03-31T05:44:14.785Z,90.90
2019-03-31T05:46:41.040Z,86.30
2019-03-31T05:49:07.296Z,79.20
2019-03-31T05:51:33.527Z,74.10
2019-03-31T05:53:59.792Z,68.90
2019-03-31T05:56:26.231Z,63.90
2019-03-31T05:58:52.490Z,59.60
2019-03-31T06:01:18.712Z,57.70
2019-03-31T06:03:45.021Z,55.40
2019-03-31T06:06:11.250Z,53.00
2019-03-31T06:08:37.478Z,50.60
2019-03-31T06:11:03.727Z,49.90
2019-03-31T06:13:30.047Z,47.50
2019-03-31T06:15:56.406Z,45.90
2019-03-31T06:18:22.638Z,44.20
2019-03-31T06:20:48.904Z,42.70
2019-03-31T06:23:15.123Z,42.80
2019-03-31T06:25:41.409Z,41.50
2019-03-31T06:28:07.620Z,40.70
2019-03-31T06:30:33.857Z,40.40
2019-03-31T06:33:00.106Z,39.50
2019-03-31T06:35:26.327Z,38.10
2019-03-31T06:37:52.589Z,37.30
2019-03-31T06:40:18.822Z,36.40
2019-03-31T06:42:45.078Z,36.20
2019-03-31T06:45:11.506Z,36.80
2019-03-31T06:47:37.791Z,35.00
2019-03-31T06:50:06.283Z,35.20
2019-03-31T06:52:32.493Z,34.70
2019-03-31T06:54:58.733Z,34.40
2019-03-31T06:57:24.972Z,34.40
2019-03-31T06:59:51.222Z,34.30
2019-03-31T07:02:17.442Z,33.50
2019-03-31T07:04:43.724Z,33.90
2019-03-31T07:07:10.070Z,33.30
2019-03-31T07:09:36.294Z,33.80
2019-03-31T07:12:03.031Z,34.50
2019-03-31T07:14:29.241Z,34.40
2019-03-31T07:16:55.517Z,34.60
2019-03-31T07:19:21.746Z,33.90
2019-03-31T07:21:48.032Z,33.60
2019-03-31T07:24:14.350Z,33.70
2019-03-31T07:26:40.594Z,33.90
2019-03-31T07:29:06.805Z,33.50
2019-03-31T07:31:33.119Z,32.50
2019-03-31T07:33:59.401Z,32.50
2019-03-31T07:36:25.624Z,30.90
2019-03-31T07:39:12.046Z,30.00
2019-03-31T07:41:38.371Z,29.10
2019-03-31T07:44:04.588Z,29.60
2019-03-31T07:46:30.863Z,29.20
2019-03-31T07:48:57.118Z,29.00
2019-03-31T07:51:23.351Z,28.70
2019-03-31T07:53:49.597Z,28.40
2019-03-31T07:56:16.213Z,29.00
2019-03-31T07:58:42.709Z,29.00
2019-03-31T08:01:08.907Z,29.10
2019-03-31T08:03:35.178Z,28.60
2019-03-31T08:06:01.406Z,28.60
2019-03-31T08:08:27.626Z,27.90
2019-03-31T08:10:53.914Z,28.40
2019-03-31T08:13:20.144Z,29.00
2019-03-31T08:15:46.396Z,31.40
2019-03-31T08:18:12.634Z,34.50
2019-03-31T08:20:38.888Z,36.60
2019-03-31T08:23:05.406Z,38.40
2019-03-31T08:25:31.691Z,39.70
2019-03-31T08:27:57.920Z,40.10
2019-03-31T08:30:24.238Z,40.50
2019-03-31T08:32:50.489Z,40.90
2019-03-31T08:35:17.120Z,41.40
2019-03-31T08:37:43.369Z,41.20
2019-03-31T08:40:11.107Z,41.40
2019-03-31T08:42:37.353Z,42.00
2019-03-31T08:45:05.074Z,41.20
2019-03-31T08:47:31.348Z,41.00
2019-03-31T08:49:57.570Z,40.70
2019-03-31T08:52:23.849Z,41.00
2019-03-31T08:54:50.075Z,41.00
2019-03-31T08:57:16.299Z,41.10
2019-03-31T08:59:42.559Z,40.20
2019-03-31T09:02:26.046Z,41.60
2019-03-31T09:04:52.490Z,42.10
2019-03-31T09:07:18.711Z,42.80
2019-03-31T09:09:45.266Z,45.60
2019-03-31T09:12:11.494Z,44.00
2019-03-31T09:14:37.731Z,44.30
2019-03-31T09:17:03.954Z,45.60
2019-03-31T09:19:30.242Z,45.70
2019-03-31T09:21:56.463Z,44.90
2019-03-31T09:24:22.685Z,44.10
2019-03-31T09:26:48.925Z,44.80
2019-03-31T09:29:15.150Z,45.00
2019-03-31T09:31:41.393Z,45.30
2019-03-31T09:34:07.626Z,50.70
2019-03-31T09:36:33.882Z,44.50
2019-03-31T09:39:00.106Z,43.30
2019-03-31T09:41:26.368Z,43.30
2019-03-31T09:43:52.599Z,44.20
2019-03-31T09:46:18.852Z,44.70
2019-03-31T09:48:45.098Z,44.70
2019-03-31T09:51:11.327Z,44.80
2019-03-31T09:53:37.586Z,42.20
2019-03-31T09:58:30.451Z,42.50
2019-03-31T10:00:56.786Z,43.00
2019-03-31T10:05:49.933Z,41.50
2019-03-31T10:08:16.378Z,41.70
2019-03-31T10:10:42.806Z,40.80
2019-03-31T10:13:09.068Z,40.30
2019-03-31T10:15:35.530Z,40.10
2019-03-31T10:18:02.158Z,40.40
2019-03-31T10:20:31.255Z,40.20
2019-03-31T10:22:56.544Z,41.20
2019-03-31T10:25:22.804Z,40.30
2019-03-31T10:27:49.026Z,40.00
2019-03-31T10:30:19.083Z,40.40
2019-03-31T10:32:45.316Z,40.10
2019-03-31T10:35:11.579Z,39.60
2019-03-31T10:37:37.806Z,39.20
2019-03-31T10:40:06.275Z,39.70
2019-03-31T10:42:32.502Z,40.20
2019-03-31T10:44:58.737Z,40.90
2019-03-31T10:47:25.012Z,40.80
2019-03-31T10:49:51.550Z,39.80
2019-03-31T10:52:17.795Z,40.30
2019-03-31T10:54:44.025Z,40.50
2019-03-31T10:59:36.880Z,39.90
2019-03-31T11:04:29.746Z,38.50
2019-03-31T11:06:59.558Z,39.50
2019-03-31T11:09:24.060Z,38.80
2019-03-31T11:11:50.286Z,37.50
2019-03-31T11:14:16.542Z,38.20
2019-03-31T11:16:42.779Z,37.50
2019-03-31T11:19:09.204Z,37.70
2019-03-31T11:21:40.253Z,38.40
2019-03-31T11:24:05.470Z,38.00
2019-03-31T11:26:31.694Z,38.30
2019-03-31T11:28:57.925Z,37.90
2019-03-31T11:31:24.191Z,37.50
2019-03-31T11:33:50.418Z,37.80
2019-03-31T11:36:16.728Z,37.60
2019-03-31T11:41:12.831Z,34.40
2019-03-31T11:43:39.640Z,38.40
2019-03-31T11:46:06.106Z,35.70
2019-03-31T11:48:32.330Z,35.90
2019-03-31T11:51:00.413Z,35.70
2019-03-31T11:53:26.629Z,35.80
2019-03-31T11:55:52.860Z,37.90
2019-03-31T11:58:19.114Z,38.00
2019-03-31T12:00:47.247Z,36.40
2019-03-31T12:03:13.500Z,35.10
2019-03-31T12:05:39.741Z,33.40
2019-03-31T12:08:05.991Z,33.70
2019-03-31T12:10:32.214Z,33.80
2019-03-31T12:12:58.550Z,34.80
2019-03-31T12:15:24.786Z,35.30
2019-03-31T12:17:51.012Z,35.10
2019-03-31T12:20:17.464Z,34.90
2019-03-31T12:22:43.726Z,34.70
2019-03-31T12:25:10.382Z,35.10
2019-03-31T12:30:05.028Z,33.90
2019-03-31T12:32:31.265Z,32.90
2019-03-31T12:34:57.546Z,34.10
2019-03-31T12:37:23.771Z,34.40
2019-03-31T12:39:50.115Z,34.20
2019-03-31T12:42:16.362Z,34.70
2019-03-31T12:44:42.606Z,34.10
2019-03-31T12:47:09.221Z,34.10
2019-03-31T12:49:35.446Z,34.70
2019-03-31T12:52:01.710Z,38.20
2019-03-31T12:54:27.954Z,38.90
2019-03-31T12:56:54.202Z,34.20
2019-03-31T12:59:20.428Z,34.60
2019-03-31T13:01:46.699Z,35.00
2019-03-31T13:04:12.992Z,39.70
2019-03-31T13:06:39.211Z,34.20
2019-03-31T13:09:06.966Z,35.80
2019-03-31T13:11:33.189Z,33.30
2019-03-31T13:13:59.442Z,35.30
2019-03-31T13:16:25.675Z,34.00
2019-03-31T13:18:51.931Z,35.10
2019-03-31T13:21:18.162Z,34.90
2019-03-31T13:23:44.434Z,34.00
2019-03-31T13:26:10.758Z,34.50
2019-03-31T13:28:37.011Z,33.60
2019-03-31T13:31:03.369Z,34.00
2019-03-31T13:33:29.604Z,33.50
2019-03-31T13:35:55.835Z,33.80
2019-03-31T13:38:22.051Z,34.10
2019-03-31T13:40:50.497Z,34.10
2019-03-31T13:43:16.494Z,34.60
2019-03-31T13:45:42.781Z,33.70
2019-03-31T13:48:08.999Z,33.80
2019-03-31T13:50:35.266Z,34.80
2019-03-31T13:53:01.526Z,34.00
2019-03-31T13:55:27.760Z,33.90
2019-03-31T13:57:54.753Z,34.40
2019-03-31T14:00:40.406Z,34.00
2019-03-31T14:03:06.922Z,35.10
2019-03-31T14:05:33.137Z,35.10
2019-03-31T14:07:59.391Z,35.80
2019-03-31T14:10:26.331Z,35.20
2019-03-31T14:12:52.586Z,35.60
2019-03-31T14:15:19.743Z,36.30
2019-03-31T14:17:46.178Z,36.80
2019-03-31T14:20:12.706Z,35.90
2019-03-31T14:22:39.173Z,35.70
2019-03-31T14:25:05.502Z,36.00
2019-03-31T14:27:31.718Z,36.40
2019-03-31T14:29:57.975Z,34.30
2019-03-31T14:32:24.322Z,34.00
2019-03-31T14:34:50.582Z,34.00
2019-03-31T14:37:16.801Z,34.50
2019-03-31T14:39:43.046Z,34.60
2019-03-31T14:42:09.265Z,34.60
2019-03-31T14:44:35.513Z,34.60
2019-03-31T14:47:01.765Z,35.00
2019-03-31T14:49:28.142Z,34.90
2019-03-31T14:51:54.362Z,35.30
2019-03-31T14:54:20.591Z,35.50
2019-03-31T14:56:46.839Z,33.20
2019-03-31T14:59:13.062Z,33.90
2019-03-31T15:01:39.313Z,35.40
2019-03-31T15:04:05.553Z,34.90
2019-03-31T15:06:31.796Z,35.40
2019-03-31T15:08:58.018Z,35.30
2019-03-31T15:11:24.274Z,35.00
2019-03-31T15:13:50.506Z,34.90
2019-03-31T15:16:16.760Z,35.10
2019-03-31T15:18:42.991Z,34.80
2019-03-31T15:21:09.214Z,35.10
2019-03-31T15:23:35.469Z,34.40
2019-03-31T15:26:01.702Z,35.00
2019-03-31T15:28:27.963Z,34.90
2019-03-31T15:30:54.210Z,34.70
2019-03-31T15:33:20.450Z,34.70
2019-03-31T15:35:46.666Z,35.00
2019-03-31T15:38:12.915Z,34.80
2019-03-31T15:40:39.169Z,34.80
2019-03-31T15:43:05.479Z,35.30
2019-03-31T15:45:31.838Z,35.00
2019-03-31T15:47:58.085Z,35.20
2019-03-31T15:50:24.431Z,34.60
2019-03-31T15:52:50.655Z,34.80
2019-03-31T15:55:16.910Z,35.00
2019-03-31T15:57:43.151Z,35.00
2019-03-31T16:00:10.719Z,34.80
2019-03-31T16:02:37.069Z,35.30
2019-03-31T16:05:05.730Z,35.40
2019-03-31T16:07:31.983Z,35.20
2019-03-31T16:09:58.206Z,35.30
2019-03-31T16:12:24.453Z,35.20
2019-03-31T16:14:51.062Z,35.30
2019-03-31T16:17:17.339Z,35.20
2019-03-31T16:19:43.594Z,35.70
2019-03-31T16:22:09.838Z,35.60
2019-03-31T16:24:43.794Z,36.70
2019-03-31T16:27:10.065Z,36.40
2019-03-31T16:29:36.286Z,36.50
2019-03-31T16:32:02.672Z,35.80
2019-03-31T16:34:29.018Z,36.30
2019-03-31T16:36:55.296Z,36.80
2019-03-31T16:39:22.085Z,36.80
2019-03-31T16:41:48.249Z,37.20
2019-03-31T16:44:14.512Z,37.00
2019-03-31T16:46:40.765Z,37.10
2019-03-31T16:49:07.029Z,36.90
2019-03-31T16:51:33.254Z,37.40
2019-03-31T16:53:59.528Z,37.20
2019-03-31T16:56:25.751Z,37.60
2019-03-31T16:58:52.043Z,37.80
2019-03-31T17:01:18.226Z,37.30
2019-03-31T17:03:44.730Z,37.60
2019-03-31T17:06:11.262Z,37.50
2019-03-31T17:08:37.491Z,38.00
2019-03-31T17:13:32.038Z,37.80
2019-03-31T17:15:58.286Z,37.80
2019-03-31T17:18:24.518Z,37.90
2019-03-31T17:20:51.260Z,38.20
2019-03-31T17:23:17.500Z,38.40
2019-03-31T17:25:43.771Z,38.50
2019-03-31T17:30:36.670Z,38.40
2019-03-31T17:33:03.038Z,38.80
2019-03-31T17:35:29.298Z,38.50
2019-03-31T17:40:22.234Z,38.70
2019-03-31T17:42:48.481Z,38.60
2019-03-31T17:45:17.270Z,38.90
2019-03-31T17:50:09.831Z,38.80
2019-03-31T17:55:04.085Z,38.90
2019-03-31T17:59:56.926Z,39.20
2019-03-31T18:02:23.162Z,39.40
2019-03-31T18:04:49.410Z,39.40
2019-03-31T18:07:15.630Z,39.50
2019-03-31T18:09:41.897Z,39.60
2019-03-31T18:12:08.110Z,39.60
2019-03-31T18:14:34.382Z,39.70
2019-03-31T18:17:00.642Z,39.80
2019-03-31T18:19:26.861Z,39.90
2019-03-31T18:21:53.110Z,40.10
2019-03-31T18:24:19.382Z,40.20
2019-03-31T18:26:46.202Z,40.30
2019-03-31T18:31:39.055Z,40.50
2019-03-31T18:34:05.581Z,40.60
2019-03-31T18:36:37.032Z,40.70
2019-03-31T18:38:59.860Z,40.70
2019-03-31T18:41:26.150Z,40.90
2019-03-31T18:43:52.394Z,40.90
2019-03-31T18:46:18.646Z,41.10
2019-03-31T18:48:44.903Z,41.30
2019-03-31T18:51:11.148Z,41.30
2019-03-31T18:53:56.106Z,41.60
2019-03-31T18:56:40.759Z,41.70
2019-03-31T19:01:54.081Z,41.80
2019-03-31T19:04:22.242Z,42.10
2019-03-31T19:06:59.406Z,55.30
2019-03-31T19:09:44.362Z,51.90
2019-03-31T19:12:18.849Z,47.30
2019-03-31T19:14:56.196Z,47.50
2019-03-31T19:17:33.403Z,42.00
2019-03-31T19:20:10.619Z,42.40
2019-03-31T19:22:41.958Z,42.30
2019-03-31T19:27:55.334Z,42.70
2019-03-31T19:30:32.204Z,44.50
2019-03-31T19:33:09.342Z,51.60
2019-03-31T19:35:43.505Z,51.20
2019-03-31T19:41:03.926Z,49.50
2019-03-31T19:43:30.246Z,49.80
2019-03-31T19:46:07.414Z,52.30
2019-03-31T19:48:44.582Z,45.00
2019-03-31T19:51:28.101Z,46.50
2019-03-31T19:54:13.042Z,46.40
2019-03-31T19:56:43.997Z,44.40
2019-03-31T19:59:12.183Z,44.40
2019-03-31T20:01:43.071Z,44.80
2019-03-31T20:04:27.771Z,45.00
2019-03-31T20:06:55.923Z,45.50
2019-03-31T20:09:36.331Z,45.90
2019-03-31T20:12:04.711Z,46.80
2019-03-31T20:14:51.167Z,54.60
2019-03-31T20:17:28.691Z,47.30
2019-03-31T20:20:13.352Z,47.90
2019-03-31T20:22:41.538Z,47.80
2019-03-31T20:25:15.620Z,47.70
2019-03-31T20:27:50.052Z,48.00
2019-03-31T20:30:20.943Z,48.30
2019-03-31T20:33:07.567Z,48.60
2019-03-31T20:35:42.313Z,48.80
2019-03-31T20:38:10.479Z,49.00
2019-03-31T20:40:47.845Z,49.30
2019-03-31T20:43:25.286Z,49.30
2019-03-31T20:45:51.575Z,49.70
2019-03-31T20:48:17.870Z,50.10
2019-03-31T20:50:44.106Z,50.00
2019-03-31T20:53:10.333Z,50.40
2019-03-31T20:55:36.618Z,50.70
2019-03-31T20:58:03.051Z,50.80
2019-03-31T21:00:29.323Z,51.10
2019-03-31T21:02:55.546Z,51.10
2019-03-31T21:05:21.810Z,51.70
2019-03-31T21:07:48.045Z,51.80
2019-03-31T21:10:14.306Z,52.00
2019-03-31T21:12:40.547Z,52.30
2019-03-31T21:15:07.022Z,52.60
2019-03-31T21:17:33.263Z,52.80
2019-03-31T21:19:59.506Z,53.20
2019-03-31T21:22:25.862Z,53.40
2019-03-31T21:24:52.106Z,53.70
2019-03-31T21:27:18.388Z,53.80
2019-03-31T21:29:44.609Z,54.70
2019-03-31T21:32:10.896Z,54.30
2019-03-31T21:34:37.118Z,54.70
2019-03-31T21:37:03.380Z,55.10
2019-03-31T21:39:29.613Z,55.30
2019-03-31T21:41:55.874Z,55.50
2019-03-31T21:44:22.116Z,55.80
2019-03-31T21:46:48.388Z,56.10
2019-03-31T21:49:14.635Z,56.40
2019-03-31T21:51:40.874Z,57.40
2019-03-31T21:54:07.151Z,57.30
2019-03-31T21:56:33.505Z,57.70
2019-03-31T21:58:59.775Z,58.20
2019-03-31T22:01:26.217Z,58.90
2019-03-31T22:03:52.579Z,59.50
2019-03-31T22:06:18.810Z,60.80
2019-03-31T22:08:45.070Z,62.20
2019-03-31T22:11:11.326Z,63.80
2019-03-31T22:13:37.672Z,65.70
2019-03-31T22:16:04.031Z,69.20
2019-03-31T22:18:30.270Z,70.00
2019-03-31T22:20:56.518Z,76.50
2019-03-31T22:23:22.873Z,76.80
2019-03-31T22:25:49.198Z,79.00
2019-03-31T22:28:15.523Z,81.50
2019-03-31T22:30:42.400Z,84.50
2019-03-31T22:33:09.074Z,86.50
2019-03-31T22:35:35.297Z,88.10
2019-03-31T22:38:02.540Z,90.10
2019-03-31T22:40:28.885Z,91.20
2019-03-31T22:42:55.135Z,92.10
2019-03-31T22:45:21.354Z,92.40
2019-03-31T22:47:47.838Z,93.00
2019-03-31T22:50:14.283Z,93.60
2019-03-31T22:52:40.537Z,94.00
2019-03-31T22:55:07.071Z,94.80
2019-03-31T22:57:33.318Z,98.40
2019-03-31T22:59:59.538Z,98.40
2019-03-31T23:02:25.814Z,99.90
2019-03-31T23:04:52.056Z,98.80
2019-03-31T23:07:18.286Z,98.60
2019-03-31T23:09:44.546Z,97.40
2019-03-31T23:12:10.786Z,97.60
2019-03-31T23:14:37.042Z,97.60
2019-03-31T23:17:03.754Z,97.70
2019-03-31T23:19:30.010Z,98.00
2019-03-31T23:21:56.226Z,98.40
2019-03-31T23:24:22.482Z,99.00
2019-03-31T23:26:48.713Z,99.40
2019-03-31T23:29:15.036Z,99.40
2019-03-31T23:31:41.299Z,99.60
2019-03-31T23:34:07.527Z,99.90
2019-03-31T23:36:33.850Z,99.90
2019-03-31T23:39:01.993Z,99.90
2019-03-31T23:41:28.368Z,99.90
2019-03-31T23:43:54.597Z,99.90
2019-03-31T23:46:20.868Z,99.90
2019-03-31T23:48:47.094Z,99.90
2019-03-31T23:51:13.327Z,99.90
2019-03-31T23:53:39.703Z,99.90
2019-03-31T23:56:05.917Z,99.90
2019-03-31T23:58:32.162Z,99.90
